Terminal Aerodrome Forecast
Issued by NWS

Home | Current Version | Previous Version | Text Only | Print | Product List | Glossary On
Versions: 1 2 3 4 5 6 7 8 9 10 11 12 13 14 15 16 17 18 19 20 21 22 23 24 25 26 27 28 29 30 31 32 33 34 35 36 37 38 39 40 41 42
114
FTUS41 KOKX 240133 AAA
TAFTEB
TAF AMD
KTEB 240133Z 2402/2424 03019G37KT 2SM +RAPL OVC012
     FM240500 03019G28KT 2SM +RA OVC011
     FM240800 04017G28KT 3SM RA OVC012
     FM241100 03015G25KT 5SM -RA OVC009
     FM241200 03013KT 5SM -RA OVC007
     FM241600 01011KT 5SM -RA OVC008
     FM242000 34010KT 5SM -RA OVC011
     FM242300 33012KT 5SM -RA OVC020=

USA.gov is the U.S. government's official web portal to all federal, state and local government web resources and services.